createdAt,value
2018-06-02T06:43:17.173Z,6.17
2018-06-02T06:45:45.784Z,5.17
2018-06-02T06:48:15.092Z,4.93
2018-06-02T06:50:43.693Z,6.43
2018-06-02T06:53:12.643Z,5.60
2018-06-02T06:55:42.061Z,5.87
2018-06-02T06:58:11.558Z,6.43
2018-06-02T07:00:41.085Z,5.80
2018-06-02T07:03:10.413Z,4.67
2018-06-02T07:05:44.360Z,4.57
2018-06-02T07:08:13.790Z,5.93
2018-06-02T07:10:43.235Z,5.27
2018-06-02T07:13:12.118Z,4.43
2018-06-02T07:15:40.954Z,5.10
2018-06-02T07:18:21.782Z,4.27
2018-06-02T07:20:50.403Z,5.63
2018-06-02T07:23:20.035Z,5.13
2018-06-02T07:25:49.933Z,5.60
2018-06-02T07:28:18.445Z,7.37
2018-06-02T07:30:47.269Z,8.03
2018-06-02T07:33:17.701Z,7.03
2018-06-02T07:35:47.008Z,7.87
2018-06-02T07:38:17.885Z,5.80
2018-06-02T07:40:46.430Z,5.83
2018-06-02T07:43:14.932Z,4.60
2018-06-02T07:45:43.525Z,5.90
2018-06-02T07:48:12.084Z,5.47
2018-06-02T07:50:51.170Z,5.60
2018-06-02T07:53:20.542Z,6.10
2018-06-02T07:55:50.313Z,5.87
2018-06-02T07:58:18.865Z,7.33
2018-06-02T08:00:48.315Z,5.40
2018-06-02T08:03:16.832Z,5.13
2018-06-02T08:05:45.712Z,8.17
2018-06-02T08:08:15.019Z,6.80
2018-06-02T08:10:43.662Z,6.73
2018-06-02T08:13:12.263Z,6.77
2018-06-02T08:15:44.431Z,7.10
2018-06-02T08:18:13.013Z,6.87
2018-06-02T08:20:41.775Z,6.07
2018-06-02T08:23:10.316Z,5.17
2018-06-02T08:25:39.621Z,6.43
2018-06-02T08:28:08.915Z,7.87
2018-06-02T08:30:37.742Z,6.40
2018-06-02T08:33:07.136Z,7.43
2018-06-02T08:35:36.424Z,4.87
2018-06-02T08:38:05.675Z,6.70
2018-06-02T08:40:34.624Z,6.43
2018-06-02T08:43:03.938Z,5.97
2018-06-02T08:45:33.235Z,5.73
2018-06-02T08:48:02.634Z,5.77
2018-06-02T08:50:33.001Z,4.63
2018-06-02T08:53:02.459Z,6.27
2018-06-02T08:55:31.845Z,4.90
2018-06-02T08:58:02.552Z,6.60
2018-06-02T09:00:32.401Z,5.53
2018-06-02T09:03:01.833Z,5.70
2018-06-02T09:05:31.527Z,6.27
2018-06-02T09:08:00.061Z,5.47
2018-06-02T09:10:29.588Z,5.60
2018-06-02T09:12:58.595Z,7.23
2018-06-02T09:15:29.312Z,6.10
2018-06-02T09:17:59.275Z,4.10
2018-06-02T09:20:27.876Z,4.47
2018-06-02T09:22:57.263Z,8.10
2018-06-02T09:25:27.517Z,7.00
2018-06-02T09:27:56.402Z,5.53
2018-06-02T09:30:25.329Z,5.60
2018-06-02T09:32:53.887Z,5.77
2018-06-02T09:35:22.608Z,5.53
2018-06-02T09:37:51.646Z,5.80
2018-06-02T09:40:22.197Z,6.80
2018-06-02T09:42:51.019Z,5.63
2018-06-02T09:45:19.706Z,6.03
2018-06-02T09:47:48.756Z,5.50
2018-06-02T09:50:18.059Z,4.33
2018-06-02T09:52:47.426Z,4.07
2018-06-02T09:55:16.856Z,5.70
2018-06-02T09:57:46.202Z,5.17
2018-06-02T10:00:21.819Z,4.37
2018-06-02T10:02:50.565Z,5.00
2018-06-02T10:05:19.178Z,3.73
2018-06-02T10:07:48.552Z,4.30
2018-06-02T10:10:18.454Z,5.33
2018-06-02T10:12:47.778Z,5.00
2018-06-02T10:15:17.140Z,5.20
2018-06-02T10:17:45.676Z,5.60
2018-06-02T10:20:14.327Z,4.60
2018-06-02T10:22:43.691Z,4.23
2018-06-02T10:25:13.398Z,7.10
2018-06-02T10:27:42.034Z,5.37
2018-06-02T10:30:11.563Z,5.03
2018-06-02T10:32:40.225Z,7.07
2018-06-02T10:35:10.047Z,4.70
2018-06-02T10:37:39.401Z,4.93
2018-06-02T10:40:08.015Z,4.97
2018-06-02T10:42:36.952Z,4.00
2018-06-02T10:45:05.546Z,6.23
2018-06-02T10:47:34.106Z,4.63
2018-06-02T10:50:03.544Z,4.40
2018-06-02T10:52:32.086Z,6.50
2018-06-02T10:55:01.447Z,3.07
2018-06-02T10:57:30.312Z,5.23
2018-06-02T10:59:59.831Z,4.37
2018-06-02T11:02:29.234Z,4.50
2018-06-02T11:04:57.767Z,5.03
2018-06-02T11:07:27.334Z,3.80
2018-06-02T11:09:55.947Z,5.07
2018-06-02T11:12:26.010Z,3.90
2018-06-02T11:14:54.811Z,4.53
2018-06-02T11:17:23.785Z,5.63
2018-06-02T11:19:53.273Z,3.43
2018-06-02T11:22:22.927Z,4.83
2018-06-02T11:24:52.040Z,3.80
2018-06-02T11:27:20.547Z,3.73
2018-06-02T11:29:50.223Z,3.53
2018-06-02T11:32:20.099Z,3.27
2018-06-02T11:34:48.764Z,5.73
2018-06-02T11:37:18.607Z,3.53
2018-06-02T11:39:47.172Z,2.80
2018-06-02T11:42:16.034Z,4.00
2018-06-02T11:44:44.699Z,5.10
2018-06-02T11:47:13.308Z,3.70
2018-06-02T11:49:41.794Z,6.67
2018-06-02T11:52:11.408Z,5.13
2018-06-02T11:54:40.778Z,5.93
2018-06-02T11:57:09.558Z,4.70
2018-06-02T11:59:39.854Z,5.20
2018-06-02T12:02:10.540Z,3.47
2018-06-02T12:04:40.545Z,4.17
2018-06-02T12:07:09.233Z,3.67
2018-06-02T12:09:39.289Z,3.30
2018-06-02T12:12:13.167Z,5.10
2018-06-02T12:14:42.043Z,4.80
2018-06-02T12:17:10.713Z,3.50
2018-06-02T12:19:39.335Z,4.00
2018-06-02T12:22:08.781Z,4.17
2018-06-02T12:24:37.469Z,3.53
2018-06-02T12:27:06.855Z,3.53
2018-06-02T12:29:35.505Z,4.07
2018-06-02T12:32:04.103Z,5.00
2018-06-02T12:34:33.143Z,3.73
2018-06-02T12:37:01.716Z,3.50
2018-06-02T12:39:30.540Z,3.90
2018-06-02T12:41:59.160Z,3.63
2018-06-02T12:44:29.833Z,3.97
2018-06-02T12:46:58.582Z,3.87
2018-06-02T12:49:28.345Z,4.63
2018-06-02T12:51:56.893Z,3.83
2018-06-02T12:54:25.557Z,4.30
2018-06-02T12:56:54.148Z,5.00
2018-06-02T12:59:23.905Z,3.47
2018-06-02T13:01:52.457Z,5.70
2018-06-02T13:04:21.146Z,4.20
2018-06-02T13:06:50.164Z,4.13
2018-06-02T13:09:19.077Z,3.53
2018-06-02T13:11:48.598Z,3.33
2018-06-02T13:14:17.151Z,3.93
2018-06-02T13:16:45.898Z,3.73
2018-06-02T13:19:15.711Z,4.60
2018-06-02T13:21:45.163Z,3.67
2018-06-02T13:24:13.724Z,3.47
2018-06-02T13:26:42.708Z,3.93
2018-06-02T13:29:12.425Z,3.97
2018-06-02T13:31:40.961Z,3.40
2018-06-02T13:34:09.951Z,3.17
2018-06-02T13:36:38.560Z,5.03
2018-06-02T13:39:07.906Z,5.77
2018-06-02T13:41:36.455Z,3.90
2018-06-02T13:44:05.334Z,3.43
2018-06-02T13:46:34.666Z,5.23
2018-06-02T13:49:03.343Z,6.00
2018-06-02T13:51:32.233Z,6.43
2018-06-02T13:54:00.889Z,7.30
2018-06-02T13:56:30.193Z,6.23
2018-06-02T13:58:59.485Z,5.17
2018-06-02T14:01:29.714Z,4.23
2018-06-02T14:03:59.016Z,6.00
2018-06-02T14:06:28.788Z,4.27
2018-06-02T14:08:58.033Z,4.53
2018-06-02T14:11:26.874Z,3.70
2018-06-02T14:13:55.852Z,3.97
2018-06-02T14:16:24.580Z,4.23
2018-06-02T14:18:53.551Z,3.17
2018-06-02T14:21:22.400Z,3.97
2018-06-02T14:23:51.443Z,3.20
2018-06-02T14:26:20.277Z,4.00
2018-06-02T14:28:49.172Z,3.30
2018-06-02T14:31:18.235Z,3.80
2018-06-02T14:33:48.012Z,4.03
2018-06-02T14:36:16.990Z,5.00
2018-06-02T14:38:45.908Z,5.37
2018-06-02T14:41:15.203Z,5.93
2018-06-02T14:43:44.190Z,4.13
2018-06-02T14:46:13.733Z,5.77
2018-06-02T14:48:43.347Z,4.63
2018-06-02T14:51:13.796Z,3.40
2018-06-02T14:53:42.489Z,5.37
2018-06-02T14:56:13.673Z,3.20
2018-06-02T14:58:42.323Z,4.93
2018-06-02T15:01:11.811Z,3.97
2018-06-02T15:03:41.253Z,4.20
2018-06-02T15:06:11.359Z,5.13
2018-06-02T15:08:41.461Z,4.73
2018-06-02T15:11:10.468Z,4.30
2018-06-02T15:13:40.981Z,10.83
2018-06-02T15:16:10.963Z,7.20
2018-06-02T15:18:42.279Z,5.60
2018-06-02T15:21:11.864Z,8.30
2018-06-02T15:23:42.266Z,5.13
2018-06-02T15:26:15.440Z,6.43
2018-06-02T15:28:44.451Z,5.63
2018-06-02T15:31:14.195Z,6.37
2018-06-02T15:33:43.748Z,8.07
2018-06-02T15:36:12.685Z,8.43
2018-06-02T15:38:42.941Z,6.87
2018-06-02T15:41:11.986Z,12.20
2018-06-02T15:43:41.691Z,9.57
2018-06-02T15:46:10.430Z,9.97
2018-06-02T15:48:41.555Z,10.00
2018-06-02T15:51:10.537Z,10.60
2018-06-02T15:53:40.393Z,11.70
2018-06-02T15:56:09.069Z,18.30
2018-06-02T15:58:38.005Z,19.13
2018-06-02T16:01:07.525Z,17.07
2018-06-02T16:03:37.487Z,22.93
2018-06-02T16:06:07.544Z,20.20
2018-06-02T16:08:37.021Z,17.10
2018-06-02T16:11:06.603Z,18.13
2018-06-02T16:13:35.283Z,18.17
2018-06-02T16:16:05.019Z,17.60
2018-06-02T16:18:33.897Z,15.77
2018-06-02T22:37:21.438Z,6.67
2018-06-02T22:39:49.651Z,5.10
2018-06-02T22:42:18.749Z,6.87
2018-06-02T22:44:47.304Z,7.20
2018-06-02T22:47:15.875Z,7.73
2018-06-02T22:49:44.402Z,5.70
2018-06-02T22:52:13.604Z,8.20
2018-06-02T22:54:42.317Z,7.03
2018-06-02T22:57:16.296Z,6.80
2018-06-02T22:59:44.844Z,8.40
2018-06-02T23:02:13.441Z,5.70
2018-06-02T23:04:42.382Z,7.93
2018-06-02T23:07:11.209Z,6.90
2018-06-02T23:09:40.682Z,5.23
2018-06-02T23:12:09.643Z,5.83
2018-06-02T23:14:38.986Z,7.97
2018-06-02T23:17:07.876Z,5.50
2018-06-02T23:19:37.292Z,5.33
2018-06-02T23:22:06.028Z,6.67
2018-06-02T23:24:34.993Z,5.67
2018-06-02T23:27:04.371Z,6.53
2018-06-02T23:29:33.179Z,6.70
2018-06-02T23:32:02.261Z,6.03
2018-06-02T23:34:34.177Z,6.67
2018-06-02T23:37:02.740Z,6.30
2018-06-02T23:39:31.370Z,6.17
2018-06-02T23:41:59.880Z,5.07
2018-06-02T23:44:29.783Z,5.53
2018-06-02T23:46:58.249Z,5.93
2018-06-02T23:49:26.857Z,6.93
2018-06-02T23:51:55.368Z,6.07
2018-06-02T23:54:25.409Z,6.20
2018-06-02T23:56:54.179Z,4.40
2018-06-02T23:59:22.688Z,5.93
